createdAt,value
2022-08-17T00:00:06.980Z,37.06
2022-08-17T00:02:55.462Z,37.05
2022-08-17T00:05:23.272Z,37.03
2022-08-17T00:07:50.702Z,37.02
2022-08-17T00:10:18.250Z,36.94
2022-08-17T00:12:45.760Z,36.99
2022-08-17T00:15:13.513Z,36.94
2022-08-17T00:17:43.088Z,37.07
2022-08-17T00:20:12.135Z,36.82
2022-08-17T00:22:39.530Z,36.82
2022-08-17T00:25:08.472Z,36.86
2022-08-17T00:27:35.941Z,36.77
2022-08-17T00:30:05.299Z,36.69
2022-08-17T00:33:12.527Z,36.72
2022-08-17T00:35:27.961Z,36.59
2022-08-17T00:37:55.575Z,36.60
2022-08-17T00:40:24.649Z,36.61
2022-08-17T00:42:53.499Z,36.62
2022-08-17T00:45:22.739Z,36.47
2022-08-17T00:47:50.086Z,36.63
2022-08-17T00:50:19.729Z,36.41
2022-08-17T00:52:51.722Z,36.40
2022-08-17T00:55:20.047Z,36.51
2022-08-17T00:57:54.660Z,36.39
2022-08-17T01:00:27.537Z,36.53
2022-08-17T01:02:58.217Z,36.44
2022-08-17T01:05:27.755Z,36.47
2022-08-17T01:07:56.342Z,36.37
2022-08-17T01:10:57.566Z,36.31
2022-08-17T01:13:14.995Z,36.18
2022-08-17T01:15:46.389Z,36.25
2022-08-17T01:18:13.840Z,36.28
2022-08-17T01:20:48.419Z,36.12
2022-08-17T01:23:19.879Z,36.19
2022-08-17T01:25:49.874Z,36.20
2022-08-17T01:28:52.954Z,36.26
2022-08-17T01:31:05.702Z,36.10
2022-08-17T01:33:33.146Z,36.12
2022-08-17T01:36:00.808Z,36.10
2022-08-17T01:38:31.828Z,35.95
2022-08-17T01:41:05.971Z,35.93
2022-08-17T01:43:36.248Z,35.98
2022-08-17T01:46:04.198Z,35.86
2022-08-17T01:48:35.577Z,35.90
2022-08-17T01:51:02.887Z,35.82
2022-08-17T01:53:33.004Z,35.60
2022-08-17T01:56:09.073Z,35.73
2022-08-17T01:58:38.218Z,35.85
2022-08-17T02:01:06.414Z,35.83
2022-08-17T02:03:34.680Z,35.83
2022-08-17T02:06:02.361Z,35.92
2022-08-17T02:08:36.886Z,35.84
2022-08-17T02:11:08.932Z,35.74
2022-08-17T02:13:39.182Z,35.63
2022-08-17T02:16:06.725Z,35.84
2022-08-17T02:18:34.139Z,35.67
2022-08-17T02:21:01.765Z,35.61
2022-08-17T02:23:30.626Z,35.61
2022-08-17T02:25:59.175Z,35.53
2022-08-17T02:28:28.420Z,35.62
2022-08-17T02:31:01.977Z,35.69
2022-08-17T02:33:42.463Z,35.57
2022-08-17T02:36:12.668Z,35.49
2022-08-17T02:38:41.278Z,35.48
2022-08-17T02:41:08.942Z,35.49
2022-08-17T02:43:36.202Z,35.36
2022-08-17T02:46:03.509Z,35.60
2022-08-17T02:48:32.015Z,35.39
2022-08-17T02:51:00.562Z,35.45
2022-08-17T02:53:28.018Z,35.37
2022-08-17T02:56:03.745Z,35.43
2022-08-17T02:58:34.913Z,35.39
2022-08-17T03:01:06.993Z,35.48
2022-08-17T03:03:35.011Z,35.34
2022-08-17T03:06:02.769Z,35.34
2022-08-17T03:08:30.139Z,35.39
2022-08-17T03:10:57.438Z,35.33
2022-08-17T03:13:24.801Z,35.26
2022-08-17T03:15:52.088Z,35.43
2022-08-17T03:18:24.854Z,35.30
2022-08-17T03:20:54.679Z,35.47
2022-08-17T03:23:24.057Z,35.36
2022-08-17T03:25:53.421Z,35.31
2022-08-17T03:28:21.679Z,35.30
2022-08-17T03:30:49.147Z,35.58
2022-08-17T03:33:17.061Z,35.25
2022-08-17T03:35:44.368Z,35.42
2022-08-17T03:38:15.075Z,35.35
2022-08-17T03:40:57.380Z,35.41
2022-08-17T03:43:28.325Z,35.40
2022-08-17T03:46:34.660Z,35.38
2022-08-17T03:49:21.073Z,35.48
2022-08-17T03:52:06.857Z,35.40
2022-08-17T03:54:52.528Z,35.40
2022-08-17T03:57:19.977Z,35.39
2022-08-17T03:59:47.691Z,35.34
2022-08-17T04:02:33.872Z,35.22
2022-08-17T04:05:01.261Z,35.32
2022-08-17T04:07:29.702Z,35.17
2022-08-17T04:09:58.322Z,35.22
2022-08-17T04:12:26.277Z,35.24
2022-08-17T04:14:55.056Z,35.18
2022-08-17T04:17:24.467Z,35.35
2022-08-17T04:19:51.849Z,35.17
2022-08-17T04:22:32.446Z,35.21
2022-08-17T04:25:14.313Z,35.32
2022-08-17T04:27:41.556Z,35.22
2022-08-17T04:30:09.470Z,35.31
2022-08-17T04:33:00.673Z,35.26
2022-08-17T04:35:34.540Z,35.17
2022-08-17T04:38:02.020Z,35.18
2022-08-17T04:40:47.806Z,35.30
2022-08-17T04:43:19.789Z,35.25
2022-08-17T04:45:56.003Z,35.29
2022-08-17T04:48:34.785Z,35.23
2022-08-17T04:51:10.630Z,35.21
2022-08-17T04:53:39.413Z,35.36
2022-08-17T04:56:06.901Z,35.25
2022-08-17T04:58:34.406Z,35.33
2022-08-17T05:01:01.865Z,35.45
2022-08-17T05:03:29.391Z,35.52
2022-08-17T05:05:56.646Z,35.55
2022-08-17T05:08:24.090Z,35.57
2022-08-17T05:10:52.145Z,35.66
2022-08-17T05:13:21.769Z,35.58
2022-08-17T05:15:50.027Z,35.61
2022-08-17T05:18:17.561Z,35.67
2022-08-17T05:20:44.946Z,35.61
2022-08-17T05:23:13.780Z,35.77
2022-08-17T05:25:42.525Z,35.48
2022-08-17T05:28:16.213Z,35.43
2022-08-17T05:30:44.266Z,35.54
2022-08-17T05:33:13.273Z,35.72
2022-08-17T05:35:47.119Z,35.56
2022-08-17T05:38:15.422Z,35.75
2022-08-17T05:40:43.275Z,35.77
2022-08-17T05:43:14.825Z,36.10
2022-08-17T05:45:55.373Z,36.12
2022-08-17T05:48:35.275Z,35.96
2022-08-17T05:51:15.659Z,35.88
2022-08-17T05:53:48.983Z,36.26
2022-08-17T05:56:35.336Z,36.15
2022-08-17T05:59:13.417Z,36.27
2022-08-17T06:01:53.183Z,36.28
2022-08-17T06:04:26.539Z,36.20
2022-08-17T06:07:17.052Z,36.23
2022-08-17T06:09:56.490Z,36.39
2022-08-17T06:12:43.218Z,36.44
2022-08-17T06:15:40.010Z,36.22
2022-08-17T06:18:09.869Z,36.13
2022-08-17T06:20:52.489Z,36.48
2022-08-17T06:23:40.037Z,36.76
2022-08-17T06:26:16.248Z,36.81
2022-08-17T06:28:54.531Z,37.41
2022-08-17T06:31:31.816Z,37.24
2022-08-17T06:34:00.903Z,37.40
2022-08-17T06:36:34.540Z,37.19
2022-08-17T06:39:07.913Z,37.65
2022-08-17T06:42:03.042Z,37.59
2022-08-17T06:44:42.258Z,37.55
2022-08-17T06:47:37.405Z,37.38
2022-08-17T06:50:25.048Z,37.60
2022-08-17T06:53:03.911Z,37.81
2022-08-17T06:55:44.297Z,36.88
2022-08-17T06:58:16.676Z,37.33
2022-08-17T07:00:46.260Z,37.41
2022-08-17T07:03:26.801Z,37.30
2022-08-17T07:05:56.991Z,37.42
2022-08-17T07:08:35.113Z,37.86
2022-08-17T07:11:08.809Z,37.46
2022-08-17T07:13:57.607Z,37.70
2022-08-17T07:16:28.252Z,37.70
2022-08-17T07:18:59.052Z,38.00
2022-08-17T07:21:34.477Z,37.79
2022-08-17T07:24:29.340Z,37.58
2022-08-17T07:27:03.437Z,37.67
2022-08-17T07:29:33.253Z,37.74
2022-08-17T07:32:00.604Z,37.88
2022-08-17T07:34:29.201Z,37.78
2022-08-17T07:37:05.532Z,38.30
2022-08-17T07:39:32.928Z,38.49
2022-08-17T07:42:04.360Z,38.48
2022-08-17T07:44:31.741Z,38.18
2022-08-17T07:47:17.795Z,38.31
2022-08-17T07:49:48.159Z,38.32
2022-08-17T07:52:51.854Z,38.59
2022-08-17T07:55:31.026Z,38.29
2022-08-17T07:57:59.157Z,38.39
2022-08-17T08:00:31.861Z,38.73
2022-08-17T08:03:02.290Z,38.79
2022-08-17T08:05:49.205Z,38.78
2022-08-17T08:08:22.988Z,38.45
2022-08-17T08:10:59.539Z,38.82
2022-08-17T08:13:30.329Z,38.72
2022-08-17T08:16:16.224Z,38.42
2022-08-17T08:18:54.967Z,38.48
2022-08-17T08:21:47.258Z,38.62
2022-08-17T08:24:23.473Z,38.61
2022-08-17T08:27:01.717Z,38.87
2022-08-17T08:29:52.873Z,38.65
2022-08-17T08:32:37.058Z,39.05
2022-08-17T08:35:07.277Z,38.68
2022-08-17T08:37:48.145Z,38.65
2022-08-17T08:40:34.286Z,38.49
2022-08-17T08:43:07.536Z,38.39
2022-08-17T08:45:57.923Z,38.82
2022-08-17T08:48:52.742Z,38.57
2022-08-17T08:51:27.857Z,38.57
2022-08-17T08:53:58.111Z,38.54
2022-08-17T08:56:37.408Z,38.73
2022-08-17T08:59:16.389Z,38.42
2022-08-17T09:01:43.810Z,38.47
2022-08-17T09:04:24.771Z,38.48
2022-08-17T09:06:59.037Z,38.75
2022-08-17T09:09:45.369Z,38.84
2022-08-17T09:12:36.342Z,38.82
2022-08-17T09:15:13.333Z,38.67
2022-08-17T09:17:48.549Z,38.46
2022-08-17T09:20:28.075Z,38.29
2022-08-17T09:22:58.503Z,38.31
2022-08-17T09:25:31.449Z,38.73
2022-08-17T09:28:00.565Z,38.60
2022-08-17T09:30:36.336Z,38.85
2022-08-17T09:33:06.509Z,38.62
2022-08-17T09:35:39.562Z,38.62
2022-08-17T09:38:30.331Z,38.67
2022-08-17T09:41:08.364Z,38.47
2022-08-17T09:43:43.294Z,38.36
2022-08-17T09:46:16.450Z,38.67
2022-08-17T09:48:56.703Z,38.66
2022-08-17T09:51:23.928Z,38.49
2022-08-17T09:53:51.490Z,38.47
2022-08-17T09:56:18.833Z,38.52
2022-08-17T09:58:50.790Z,38.49
2022-08-17T10:01:24.998Z,38.17
2022-08-17T10:03:52.857Z,38.27
2022-08-17T10:06:27.533Z,38.31
2022-08-17T10:09:13.644Z,38.21
2022-08-17T10:12:20.351Z,38.24
2022-08-17T10:14:55.533Z,38.04
2022-08-17T10:17:23.205Z,38.14
2022-08-17T10:19:53.255Z,38.08
2022-08-17T10:22:49.889Z,38.00
2022-08-17T10:25:53.925Z,38.20
2022-08-17T10:28:29.394Z,38.02
2022-08-17T10:31:23.451Z,38.13
2022-08-17T10:33:56.311Z,37.85
2022-08-17T10:36:29.227Z,37.93
2022-08-17T10:39:07.357Z,37.73
2022-08-17T10:41:44.573Z,37.85
2022-08-17T10:44:38.520Z,37.73
2022-08-17T10:47:14.467Z,38.01
2022-08-17T10:49:53.732Z,37.72
2022-08-17T10:52:22.033Z,37.69
2022-08-17T10:54:57.922Z,37.79
2022-08-17T10:57:37.113Z,37.74
2022-08-17T11:00:15.483Z,37.69
2022-08-17T11:02:51.319Z,37.67
2022-08-17T11:05:30.573Z,37.50
2022-08-17T11:07:58.744Z,37.60
2022-08-17T11:10:25.947Z,37.90
2022-08-17T11:13:01.271Z,37.52
2022-08-17T11:15:47.467Z,37.45
2022-08-17T11:18:14.825Z,37.29
2022-08-17T11:20:51.037Z,37.29
2022-08-17T11:23:18.603Z,37.33
2022-08-17T11:25:51.513Z,37.37
2022-08-17T11:28:23.201Z,37.38
2022-08-17T11:31:01.715Z,37.45
2022-08-17T11:33:29.368Z,37.21
2022-08-17T11:36:06.457Z,37.05
2022-08-17T11:38:43.156Z,36.93
2022-08-17T11:41:31.398Z,37.02
2022-08-17T11:44:13.491Z,36.98
2022-08-17T11:47:18.641Z,37.15
2022-08-17T11:50:05.013Z,37.07
2022-08-17T11:52:35.644Z,36.87
2022-08-17T11:55:33.500Z,36.86
2022-08-17T11:58:00.296Z,37.00
2022-08-17T12:00:46.051Z,36.98
2022-08-17T12:03:26.553Z,36.98
2022-08-17T12:06:20.209Z,36.78
2022-08-17T12:09:08.077Z,36.93
2022-08-17T12:12:11.350Z,36.97
2022-08-17T12:14:51.720Z,36.78
2022-08-17T12:17:41.586Z,36.67
2022-08-17T12:20:15.741Z,36.51
2022-08-17T12:22:43.172Z,36.66
2022-08-17T12:25:19.264Z,36.95
2022-08-17T12:28:05.962Z,36.78
2022-08-17T12:30:35.532Z,36.77
2022-08-17T12:33:40.213Z,36.55
2022-08-17T12:36:28.323Z,36.27
2022-08-17T12:39:14.317Z,36.56
2022-08-17T12:41:50.653Z,36.51
2022-08-17T12:44:22.436Z,36.94
2022-08-17T12:46:50.124Z,36.70
2022-08-17T12:49:26.632Z,36.60
2022-08-17T12:52:00.512Z,36.52
2022-08-17T12:54:36.672Z,36.43
2022-08-17T12:57:06.849Z,36.63
2022-08-17T12:59:34.168Z,36.60
2022-08-17T13:02:01.520Z,36.38
2022-08-17T13:04:29.731Z,36.29
2022-08-17T13:07:00.230Z,36.45
2022-08-17T13:09:35.350Z,36.52
2022-08-17T13:12:05.180Z,36.56
2022-08-17T13:14:33.342Z,36.50
2022-08-17T13:17:02.311Z,36.39
2022-08-17T13:19:40.264Z,36.32
2022-08-17T13:22:11.054Z,36.53
2022-08-17T13:24:39.067Z,36.58
2022-08-17T13:27:08.586Z,36.38
2022-08-17T13:29:45.199Z,36.35
2022-08-17T13:32:33.466Z,36.50
2022-08-17T13:35:16.533Z,36.23
2022-08-17T13:38:01.694Z,36.45
2022-08-17T13:40:33.591Z,36.34
2022-08-17T13:43:03.285Z,36.32
2022-08-17T13:45:36.315Z,36.29
2022-08-17T13:48:13.612Z,36.10
2022-08-17T13:50:56.412Z,35.98
2022-08-17T13:53:26.810Z,36.06
2022-08-17T13:55:56.346Z,36.10
2022-08-17T13:58:28.092Z,36.28
2022-08-17T14:00:56.388Z,36.45
2022-08-17T14:03:24.148Z,36.19
2022-08-17T14:05:52.394Z,36.22
2022-08-17T14:08:20.809Z,36.25
2022-08-17T14:10:56.485Z,36.30
2022-08-17T14:13:23.966Z,36.25
2022-08-17T14:15:54.868Z,36.14
2022-08-17T14:18:35.611Z,36.18
2022-08-17T14:21:11.988Z,35.84
2022-08-17T14:23:39.415Z,35.84
2022-08-17T14:26:06.881Z,36.01
2022-08-17T14:28:36.350Z,36.12
2022-08-17T14:31:04.451Z,36.12
2022-08-17T14:33:31.772Z,36.33
2022-08-17T14:35:59.130Z,36.53
2022-08-17T14:38:26.431Z,36.46
2022-08-17T14:40:54.269Z,36.62
2022-08-17T14:43:21.510Z,36.51
2022-08-17T14:45:48.933Z,36.65
2022-08-17T14:48:16.232Z,36.91
2022-08-17T14:50:43.918Z,36.90
2022-08-17T14:53:12.450Z,36.81
2022-08-17T14:55:40.832Z,36.79
2022-08-17T14:58:09.327Z,36.95
2022-08-17T15:00:37.457Z,37.07
2022-08-17T15:03:05.391Z,37.00
2022-08-17T15:05:34.823Z,37.11
2022-08-17T15:08:02.989Z,37.27
2022-08-17T15:10:30.830Z,37.45
2022-08-17T15:12:58.440Z,37.17
2022-08-17T15:15:26.232Z,37.23
2022-08-17T15:17:54.877Z,37.39
2022-08-17T15:20:28.079Z,37.65
2022-08-17T15:22:57.344Z,37.62
2022-08-17T15:25:25.480Z,37.52
2022-08-17T15:27:53.809Z,37.60
2022-08-17T15:30:21.376Z,37.45
2022-08-17T15:32:51.359Z,37.57
2022-08-17T15:35:28.136Z,37.27
2022-08-17T15:38:08.038Z,37.01
2022-08-17T15:40:39.837Z,37.14
2022-08-17T15:43:14.863Z,37.19
2022-08-17T15:45:43.418Z,37.38
2022-08-17T15:48:11.532Z,37.27
2022-08-17T15:50:39.126Z,37.25
2022-08-17T15:53:06.774Z,37.27
2022-08-17T15:55:35.092Z,37.42
2022-08-17T15:58:02.732Z,37.34
2022-08-17T16:00:30.691Z,37.30
2022-08-17T16:03:20.308Z,37.22
2022-08-17T16:05:50.553Z,37.33
2022-08-17T16:08:21.301Z,37.33
2022-08-17T16:10:50.235Z,37.12
2022-08-17T16:13:18.703Z,37.17
2022-08-17T16:15:53.065Z,37.08
2022-08-17T16:18:31.225Z,37.28
2022-08-17T16:21:21.030Z,37.13
2022-08-17T16:23:49.714Z,37.20
2022-08-17T16:26:18.189Z,37.18
2022-08-17T16:28:46.382Z,37.10
2022-08-17T16:31:14.801Z,37.10
2022-08-17T16:33:42.540Z,37.27
2022-08-17T16:36:30.023Z,37.28
2022-08-17T16:38:57.316Z,37.31
2022-08-17T16:41:45.260Z,37.11
2022-08-17T16:44:15.377Z,37.21
2022-08-17T16:46:45.813Z,37.21
2022-08-17T16:49:32.436Z,37.17
2022-08-17T16:52:03.061Z,37.36
2022-08-17T16:54:30.442Z,37.46
2022-08-17T16:56:57.733Z,37.45
2022-08-17T16:59:30.229Z,37.35
2022-08-17T17:02:05.044Z,37.19
2022-08-17T17:04:34.898Z,37.22
2022-08-17T17:07:07.287Z,37.49
2022-08-17T17:09:37.066Z,37.64
2022-08-17T17:12:07.439Z,37.50
2022-08-17T17:14:40.214Z,37.52
2022-08-17T17:17:07.597Z,37.61
2022-08-17T17:19:35.794Z,37.76
2022-08-17T17:22:09.051Z,37.73
2022-08-17T17:25:01.331Z,37.55
2022-08-17T17:27:34.544Z,37.47
2022-08-17T17:30:05.068Z,37.55
2022-08-17T17:32:32.474Z,37.69
2022-08-17T17:35:04.585Z,37.56
2022-08-17T17:37:33.222Z,37.50
2022-08-17T17:40:05.171Z,37.53
2022-08-17T17:42:33.108Z,37.45
2022-08-17T17:45:16.112Z,37.46
2022-08-17T17:47:44.198Z,37.59
2022-08-17T17:50:11.836Z,37.49
2022-08-17T17:52:42.375Z,37.40
2022-08-17T17:55:09.693Z,37.46
2022-08-17T17:57:50.067Z,37.39
2022-08-17T18:00:21.863Z,37.52
2022-08-17T18:02:57.975Z,37.37
2022-08-17T18:05:38.411Z,37.45
2022-08-17T18:08:18.011Z,37.54
2022-08-17T18:10:49.089Z,37.77
2022-08-17T18:13:16.528Z,37.78
2022-08-17T18:15:51.243Z,37.81
2022-08-17T18:18:18.712Z,37.82
2022-08-17T18:20:55.872Z,37.77
2022-08-17T18:23:28.001Z,37.93
2022-08-17T18:25:56.654Z,37.99
2022-08-17T18:28:26.719Z,37.77
2022-08-17T18:31:23.402Z,38.02
2022-08-17T18:33:52.531Z,37.80
2022-08-17T18:36:46.327Z,38.04
2022-08-17T18:39:13.595Z,38.36
2022-08-17T18:41:45.523Z,38.06
2022-08-17T18:44:25.296Z,37.99
2022-08-17T18:47:05.992Z,38.07
2022-08-17T18:49:33.599Z,37.90
2022-08-17T18:52:15.684Z,37.97
2022-08-17T18:55:03.986Z,38.06
2022-08-17T18:57:40.453Z,38.18
2022-08-17T19:00:16.132Z,38.18
2022-08-17T19:03:05.837Z,38.16
2022-08-17T19:05:41.464Z,38.02
2022-08-17T19:08:23.898Z,38.21
2022-08-17T19:10:58.631Z,38.14
2022-08-17T19:13:31.007Z,38.04
2022-08-17T19:16:14.708Z,38.14
2022-08-17T19:18:45.925Z,37.91
2022-08-17T19:21:36.287Z,37.92
2022-08-17T19:24:07.106Z,38.03
2022-08-17T19:26:53.953Z,38.12
2022-08-17T19:29:26.509Z,38.02
2022-08-17T19:31:58.885Z,38.23
2022-08-17T19:34:34.039Z,38.01
2022-08-17T19:37:10.146Z,38.12
2022-08-17T19:39:40.479Z,38.26
2022-08-17T19:42:10.734Z,38.33
2022-08-17T19:44:38.174Z,38.17
2022-08-17T19:47:11.404Z,38.01
2022-08-17T19:49:46.465Z,37.97
2022-08-17T19:52:16.779Z,38.13
2022-08-17T19:54:48.030Z,38.04
2022-08-17T19:57:18.519Z,38.16
2022-08-17T19:59:54.746Z,38.18
2022-08-17T20:02:30.900Z,38.17
2022-08-17T20:05:00.290Z,38.18
2022-08-17T20:07:39.014Z,38.11
2022-08-17T20:10:09.524Z,38.22
2022-08-17T20:12:38.670Z,37.95
2022-08-17T20:15:09.675Z,38.13
2022-08-17T20:17:39.272Z,38.18
2022-08-17T20:20:19.764Z,38.20
2022-08-17T20:22:52.524Z,38.19
2022-08-17T20:25:30.291Z,38.09
2022-08-17T20:28:05.601Z,38.04
2022-08-17T20:30:37.716Z,38.05
2022-08-17T20:33:06.929Z,37.97
2022-08-17T20:35:36.996Z,37.73
2022-08-17T20:38:10.582Z,38.02
2022-08-17T20:40:40.224Z,38.17
2022-08-17T20:43:26.449Z,38.15
2022-08-17T20:46:17.003Z,38.09
2022-08-17T20:48:46.733Z,38.01
2022-08-17T20:51:21.278Z,37.82
2022-08-17T20:53:48.550Z,37.85
2022-08-17T20:56:35.464Z,37.73
2022-08-17T20:59:03.012Z,37.73
2022-08-17T21:01:38.934Z,37.90
2022-08-17T21:04:08.225Z,37.70
2022-08-17T21:06:55.405Z,37.95
2022-08-17T21:09:28.689Z,37.78
2022-08-17T21:12:04.492Z,37.78
2022-08-17T21:14:37.008Z,37.53
2022-08-17T21:17:29.735Z,37.48
2022-08-17T21:20:35.688Z,37.54
2022-08-17T21:23:21.144Z,37.42
2022-08-17T21:26:02.505Z,37.56
2022-08-17T21:29:00.450Z,37.46
2022-08-17T21:31:36.664Z,37.36
2022-08-17T21:34:16.068Z,37.48
2022-08-17T21:36:44.233Z,37.32
2022-08-17T21:39:12.930Z,37.08
2022-08-17T21:41:46.169Z,37.28
2022-08-17T21:44:17.556Z,37.12
2022-08-17T21:46:50.284Z,37.02
2022-08-17T21:49:19.391Z,37.18
2022-08-17T21:52:05.696Z,37.03
2022-08-17T21:54:38.760Z,37.03
2022-08-17T21:57:14.704Z,37.02
2022-08-17T21:59:43.745Z,36.80
2022-08-17T22:02:19.598Z,36.84
2022-08-17T22:05:00.798Z,37.02
2022-08-17T22:07:45.896Z,36.92
2022-08-17T22:10:33.972Z,36.88
2022-08-17T22:13:02.399Z,36.77
2022-08-17T22:16:27.763Z,36.60
2022-08-17T22:19:12.960Z,36.66
2022-08-17T22:21:40.269Z,36.72
2022-08-17T22:24:18.079Z,36.50
2022-08-17T22:27:03.072Z,36.63
2022-08-17T22:29:44.993Z,36.49
2022-08-17T22:32:31.213Z,36.61
2022-08-17T22:35:17.255Z,36.50
2022-08-17T22:37:45.136Z,36.69
2022-08-17T22:40:23.715Z,36.66
2022-08-17T22:42:51.138Z,36.52
2022-08-17T22:45:18.408Z,36.51
2022-08-17T22:47:48.949Z,36.65
2022-08-17T22:50:24.551Z,36.53
2022-08-17T22:53:18.293Z,36.30
2022-08-17T22:56:12.382Z,36.41
2022-08-17T22:59:15.661Z,36.24
2022-08-17T23:01:45.369Z,36.24
2022-08-17T23:04:29.551Z,36.19
2022-08-17T23:06:56.842Z,36.30
2022-08-17T23:09:24.106Z,36.32
2022-08-17T23:11:53.354Z,36.25
2022-08-17T23:14:20.769Z,36.36
2022-08-17T23:16:51.108Z,36.22
2022-08-17T23:19:20.001Z,36.05
2022-08-17T23:21:47.521Z,36.13
2022-08-17T23:24:17.409Z,36.18
2022-08-17T23:26:44.720Z,36.17
2022-08-17T23:29:11.932Z,36.09
2022-08-17T23:31:40.088Z,35.94
2022-08-17T23:34:10.020Z,35.97
2022-08-17T23:36:37.904Z,35.95
2022-08-17T23:39:06.443Z,35.92
2022-08-17T23:41:35.865Z,36.12
2022-08-17T23:44:04.759Z,35.98
2022-08-17T23:46:32.926Z,35.89
2022-08-17T23:49:00.654Z,35.88
2022-08-17T23:51:30.156Z,35.77
2022-08-17T23:54:07.194Z,35.82
2022-08-17T23:56:38.327Z,35.82
2022-08-17T23:59:05.716Z,35.85
